createdAt,value
2019-01-10T00:01:38.493Z,25.5
2019-01-10T00:04:44.562Z,25.6
2019-01-10T00:07:50.491Z,25.6
2019-01-10T00:10:59.500Z,25.6
2019-01-10T00:14:05.323Z,25.6
2019-01-10T00:17:11.265Z,25.6
2019-01-10T00:20:17.224Z,25.7
2019-01-10T00:23:23.165Z,25.7
2019-01-10T00:26:29.353Z,25.7
2019-01-10T00:29:35.532Z,25.8
2019-01-10T00:32:41.473Z,25.8
2019-01-10T00:35:47.543Z,25.8
2019-01-10T00:38:53.581Z,25.8
2019-01-10T00:41:59.561Z,25.8
2019-01-10T00:45:05.512Z,25.9
2019-01-10T00:48:11.430Z,25.9
2019-01-10T00:51:17.428Z,25.9
2019-01-10T00:54:23.392Z,25.9
2019-01-10T00:57:29.454Z,26
2019-01-10T01:00:35.425Z,26
2019-01-10T01:03:41.483Z,26
2019-01-10T01:06:48.436Z,25.6
2019-01-10T01:09:54.291Z,25.3
2019-01-10T01:13:00.280Z,25
2019-01-10T01:16:06.230Z,24.8
2019-01-10T01:19:12.198Z,24.8
2019-01-10T01:22:21.018Z,24.7
2019-01-10T01:25:27.109Z,24.6
2019-01-10T01:28:33.144Z,24.5
2019-01-10T01:31:39.161Z,24.5
2019-01-10T01:34:45.168Z,24.4
2019-01-10T01:37:51.134Z,24.4
2019-01-10T01:41:00.152Z,24.3
2019-01-10T01:44:06.212Z,24.2
2019-01-10T01:47:12.280Z,24.3
2019-01-10T01:50:18.340Z,24.3
2019-01-10T01:53:24.359Z,24.3
2019-01-10T01:56:30.358Z,24.3
2019-01-10T01:59:36.230Z,24.3
2019-01-10T02:02:42.230Z,24.4
2019-01-10T02:05:48.440Z,24.3
2019-01-10T02:08:54.408Z,24.3
2019-01-10T02:12:02.618Z,24.2
2019-01-10T02:15:08.491Z,24.1
2019-01-10T02:18:16.780Z,24
2019-01-10T02:21:22.739Z,24
2019-01-10T02:24:28.802Z,23.9
2019-01-10T02:27:37.733Z,23.8
2019-01-10T02:30:43.792Z,23.9
2019-01-10T02:33:49.752Z,24
2019-01-10T02:36:55.712Z,24.1
2019-01-10T02:40:01.673Z,24
2019-01-10T02:43:07.753Z,24
2019-01-10T02:46:13.707Z,23.9
2019-01-10T02:49:19.757Z,23.9
2019-01-10T02:52:25.626Z,23.8
2019-01-10T02:55:31.574Z,23.8
2019-01-10T02:58:37.524Z,23.7
2019-01-10T03:01:43.544Z,23.6
2019-01-10T03:04:49.663Z,23.6
2019-01-10T03:07:55.723Z,23.5
2019-01-10T03:11:01.835Z,23.6
2019-01-10T03:14:07.841Z,23.5
2019-01-10T03:17:13.717Z,23.5
2019-01-10T03:20:19.773Z,23.5
2019-01-10T03:23:25.931Z,23.4
2019-01-10T03:26:31.993Z,23.5
2019-01-10T03:29:37.955Z,23.4
2019-01-10T03:32:44.017Z,23.4
2019-01-10T03:35:50.112Z,23.4
2019-01-10T03:38:56.241Z,23.4
2019-01-10T03:42:02.112Z,23.3
2019-01-10T03:45:08.149Z,23.3
2019-01-10T03:48:14.213Z,23.2
2019-01-10T03:51:20.277Z,23.1
2019-01-10T03:54:26.271Z,23.1
2019-01-10T03:57:32.194Z,23
2019-01-10T04:00:38.064Z,23
2019-01-10T04:03:44.007Z,22.9
2019-01-10T04:06:49.977Z,22.9
2019-01-10T04:09:55.847Z,22.9
2019-01-10T04:13:01.796Z,22.8
2019-01-10T04:16:07.754Z,23.3
2019-01-10T04:19:13.808Z,23.2
2019-01-10T04:22:19.767Z,23
2019-01-10T04:25:25.721Z,23.1
2019-01-10T04:28:31.694Z,23.1
2019-01-10T04:31:37.563Z,23.1
2019-01-10T04:34:43.599Z,23
2019-01-10T04:37:49.559Z,22.9
2019-01-10T04:40:55.434Z,22.9
2019-01-10T04:44:07.829Z,22.9
2019-01-10T04:47:13.704Z,22.8
2019-01-10T04:50:19.850Z,22.7
2019-01-10T04:53:27.446Z,22.7
2019-01-10T04:56:33.331Z,23.2
2019-01-10T04:59:39.366Z,22.9
2019-01-10T05:02:45.335Z,23.2
2019-01-10T05:05:53.818Z,22.9
2019-01-10T05:08:59.802Z,22.9
2019-01-10T05:12:05.868Z,22.7
2019-01-10T05:15:11.823Z,22.6
2019-01-10T05:18:17.782Z,22.6
2019-01-10T05:21:23.850Z,22.5
2019-01-10T05:24:32.522Z,22.5
2019-01-10T05:27:38.431Z,22.4
2019-01-10T05:30:44.389Z,22.5
2019-01-10T05:33:50.262Z,22.6
2019-01-10T05:36:56.307Z,22.4
2019-01-10T05:40:02.265Z,22.6
2019-01-10T05:43:08.243Z,23.4
2019-01-10T05:46:14.289Z,23
2019-01-10T05:49:20.179Z,22.7
2019-01-10T05:52:26.105Z,22.7
2019-01-10T05:55:32.171Z,22.5
2019-01-10T05:58:38.037Z,22.9
2019-01-10T06:01:46.444Z,22.3
2019-01-10T06:04:52.325Z,22.2
2019-01-10T06:07:58.373Z,22.2
2019-01-10T06:11:04.427Z,22.7
2019-01-10T06:14:10.375Z,22.6
2019-01-10T06:17:16.251Z,23
2019-01-10T06:20:22.306Z,23.2
2019-01-10T06:23:28.185Z,23.1
2019-01-10T06:26:34.227Z,23.5
2019-01-10T06:29:40.175Z,24
2019-01-10T06:32:46.256Z,24.8
2019-01-10T06:35:52.308Z,26.4
2019-01-10T06:38:58.243Z,24.1
2019-01-10T06:42:04.331Z,27.7
2019-01-10T06:45:10.314Z,27.7
2019-01-10T06:48:16.249Z,24.6
2019-01-10T06:51:22.293Z,24
2019-01-10T06:54:28.367Z,24.2
2019-01-10T06:57:34.430Z,23.8
2019-01-10T07:00:40.389Z,23.7
2019-01-10T07:03:49.111Z,23.2
2019-01-10T07:06:55.169Z,23.2
2019-01-10T07:10:01.235Z,23.2
2019-01-10T07:13:07.132Z,23.1
2019-01-10T07:16:13.069Z,23.2
2019-01-10T07:19:19.111Z,23.3
2019-01-10T07:22:25.186Z,22.9
2019-01-10T07:25:31.233Z,23.4
2019-01-10T07:28:37.135Z,23.4
2019-01-10T07:31:46.122Z,23.6
2019-01-10T07:34:52.004Z,23.3
2019-01-10T07:37:58.864Z,23.5
2019-01-10T07:41:04.929Z,23.9
2019-01-10T07:44:11.907Z,24.9
2019-01-10T07:47:18.806Z,23.7
2019-01-10T07:50:24.850Z,25.1
2019-01-10T07:53:31.015Z,25
2019-01-10T07:56:36.991Z,24.5
2019-01-10T07:59:43.040Z,24.1
2019-01-10T08:02:49.927Z,24.2
2019-01-10T08:05:55.978Z,23.9
2019-01-10T08:09:02.059Z,24.4
2019-01-10T08:12:09.024Z,24
2019-01-10T08:15:15.103Z,24.6
2019-01-10T08:18:21.247Z,27.1
2019-01-10T08:21:27.318Z,24.8
2019-01-10T08:24:33.581Z,24.8
2019-01-10T08:27:39.657Z,24.7
2019-01-10T08:30:45.530Z,25.2
2019-01-10T08:33:51.638Z,25.9
2019-01-10T08:36:57.750Z,24.2
2019-01-10T08:40:03.849Z,25.6
2019-01-10T08:43:12.303Z,25
2019-01-10T08:46:19.601Z,24.9
2019-01-10T08:49:26.582Z,24.8
2019-01-10T08:52:32.708Z,24.5
2019-01-10T08:55:38.711Z,24.1
2019-01-10T08:58:45.565Z,26.8
2019-01-10T09:01:51.670Z,23.4
2019-01-10T09:04:57.711Z,23.6
2019-01-10T09:08:06.743Z,24
2019-01-10T09:11:12.765Z,23.8
2019-01-10T09:14:18.802Z,23.9
2019-01-10T09:17:25.094Z,24
2019-01-10T09:20:32.014Z,23.9
2019-01-10T09:23:39.303Z,24
2019-01-10T09:26:45.368Z,23.9
2019-01-10T09:29:51.386Z,23.8
2019-01-10T09:32:57.591Z,23.8
2019-01-10T09:36:03.756Z,23.8
2019-01-10T09:39:09.733Z,23.6
2019-01-10T09:42:15.763Z,23.8
2019-01-10T09:45:21.758Z,23.7
2019-01-10T09:48:27.798Z,23.4
2019-01-10T09:51:33.759Z,23.4
2019-01-10T09:54:39.925Z,23.4
2019-01-10T09:57:45.982Z,23.4
2019-01-10T10:00:51.890Z,23.3
2019-01-10T10:03:57.921Z,23.2
2019-01-10T10:07:03.777Z,23
2019-01-10T10:10:09.716Z,22.8
2019-01-10T10:13:15.681Z,22.8
2019-01-10T10:16:21.737Z,22.9
2019-01-10T10:19:27.987Z,22.8
2019-01-10T10:22:33.806Z,22.8
2019-01-10T10:25:39.822Z,22.7
2019-01-10T10:28:45.885Z,22.8
2019-01-10T10:31:51.757Z,22.9
2019-01-10T10:34:57.807Z,23.4
2019-01-10T10:38:03.770Z,23.8
2019-01-10T10:41:09.730Z,23.7
2019-01-10T10:44:15.727Z,23.2
2019-01-10T10:47:21.861Z,23.3
2019-01-10T10:50:27.909Z,24.4
2019-01-10T10:53:33.876Z,23.6
2019-01-10T10:56:39.934Z,23.6
2019-01-10T10:59:45.897Z,23.3
2019-01-10T11:02:51.853Z,23.5
2019-01-10T11:05:57.912Z,24
2019-01-10T11:09:09.813Z,23.4
2019-01-10T11:12:15.872Z,23.1
2019-01-10T11:15:21.869Z,22.6
2019-01-10T11:18:27.899Z,23
2019-01-10T11:21:33.998Z,22.7
2019-01-10T11:24:42.473Z,22.7
2019-01-10T11:27:48.445Z,22.3
2019-01-10T11:30:54.513Z,22.5
2019-01-10T11:34:00.862Z,22.5
2019-01-10T11:37:06.872Z,22.4
2019-01-10T11:40:16.062Z,22.3
2019-01-10T11:43:23.042Z,22.3
2019-01-10T11:46:29.315Z,22.2
2019-01-10T11:49:35.477Z,22.1
2019-01-10T11:52:43.539Z,22.3
2019-01-10T11:55:50.664Z,22.5
2019-01-10T11:59:01.020Z,22.3
2019-01-10T12:02:07.006Z,22.5
2019-01-10T12:05:13.063Z,22.9
2019-01-10T12:08:19.016Z,22.4
2019-01-10T12:11:25.006Z,22.7
2019-01-10T12:14:30.942Z,23.1
2019-01-10T12:17:37.001Z,23.9
2019-01-10T12:20:42.951Z,24.1
2019-01-10T12:23:49.017Z,24.1
2019-01-10T12:26:55.080Z,24.4
2019-01-10T12:30:01.046Z,24.8
2019-01-10T12:33:06.997Z,24.8
2019-01-10T12:36:14.091Z,25.3
2019-01-10T12:39:20.169Z,26.4
2019-01-10T12:42:26.209Z,26.5
2019-01-10T12:45:32.271Z,26
2019-01-10T12:48:39.162Z,26.1
2019-01-10T12:51:45.062Z,26.2
2019-01-10T12:54:51.386Z,26.4
2019-01-10T12:58:00.949Z,26.5
2019-01-10T13:01:07.265Z,26.4
2019-01-10T13:04:13.257Z,26.5
2019-01-10T13:07:19.317Z,26.4
2019-01-10T13:10:26.142Z,26.5
2019-01-10T13:13:33.504Z,26.2
2019-01-10T13:16:47.763Z,26.1
2019-01-10T13:19:56.264Z,26
2019-01-10T13:23:02.232Z,25.9
2019-01-10T13:26:11.976Z,25.7
2019-01-10T13:29:17.910Z,25.7
2019-01-10T13:32:24.199Z,26
2019-01-10T13:35:30.369Z,25.6
2019-01-10T13:38:36.502Z,25.6
2019-01-10T13:41:42.481Z,25.7
2019-01-10T13:44:48.471Z,25.8
2019-01-10T13:47:54.501Z,25.6
2019-01-10T13:51:00.674Z,25.5
2019-01-10T13:54:08.688Z,25.7
2019-01-10T13:57:15.867Z,25.5
2019-01-10T14:00:21.868Z,25.6
2019-01-10T14:03:27.754Z,25.5
2019-01-10T14:06:33.874Z,25.5
2019-01-10T14:09:39.914Z,26.1
2019-01-10T14:12:45.982Z,25.8
2019-01-10T14:15:52.946Z,26.6
2019-01-10T14:18:59.055Z,25.8
2019-01-10T14:22:05.083Z,25.7
2019-01-10T14:25:12.175Z,25.7
2019-01-10T14:28:18.641Z,26
2019-01-10T14:31:24.698Z,25.2
2019-01-10T14:34:31.499Z,25
2019-01-10T14:37:37.580Z,25
2019-01-10T14:40:43.709Z,24.9
2019-01-10T14:43:49.766Z,24.8
2019-01-10T14:46:55.829Z,24.8
2019-01-10T14:50:01.704Z,24.8
2019-01-10T14:53:07.641Z,24.7
2019-01-10T14:56:13.701Z,24.6
2019-01-10T14:59:19.643Z,24.6
2019-01-10T15:02:25.677Z,24.6
2019-01-10T15:05:35.260Z,24.7
2019-01-10T15:08:41.327Z,24.6
2019-01-10T15:11:47.897Z,24.7
2019-01-10T15:14:53.859Z,24.5
2019-01-10T15:17:59.938Z,24.7
2019-01-10T15:21:05.893Z,24.5
2019-01-10T15:24:12.870Z,24.6
2019-01-10T15:27:18.787Z,24.7
2019-01-10T15:30:27.343Z,24.7
2019-01-10T15:33:33.614Z,24.7
2019-01-10T15:36:39.672Z,24.8
2019-01-10T15:39:46.820Z,24.9
2019-01-10T15:42:52.647Z,24.8
2019-01-10T15:45:58.779Z,24.7
2019-01-10T15:49:04.753Z,24.8
2019-01-10T15:52:11.643Z,24.8
2019-01-10T15:55:18.629Z,24.9
2019-01-10T15:58:24.666Z,24.9
2019-01-10T16:01:30.604Z,24.7
2019-01-10T16:04:36.894Z,24.7
2019-01-10T16:07:42.773Z,24.7
2019-01-10T16:10:48.789Z,24.6
2019-01-10T16:13:54.778Z,24.7
2019-01-10T16:17:00.835Z,25
2019-01-10T16:20:07.818Z,24.8
2019-01-10T16:23:13.699Z,24.6
2019-01-10T16:26:19.640Z,24.6
2019-01-10T16:29:25.593Z,24.5
2019-01-10T16:32:31.656Z,24.4
2019-01-10T16:35:37.715Z,24.4
2019-01-10T16:38:46.831Z,24.4
2019-01-10T16:41:52.913Z,24.6
2019-01-10T16:44:58.872Z,24.5
2019-01-10T16:48:04.947Z,24.8
2019-01-10T16:51:11.098Z,24.4
2019-01-10T16:54:17.031Z,24.3
2019-01-10T16:57:23.014Z,24.2
2019-01-10T17:00:28.982Z,24.3
2019-01-10T17:03:34.934Z,24.4
2019-01-10T17:06:40.895Z,24.3
2019-01-10T17:09:46.787Z,24.4
2019-01-10T17:12:52.711Z,24.3
2019-01-10T17:15:58.667Z,24.3
2019-01-10T17:19:04.549Z,24.4
2019-01-10T17:22:10.433Z,24.2
2019-01-10T17:25:16.445Z,24.2
2019-01-10T17:28:25.379Z,24.2
2019-01-10T17:31:31.308Z,24.2
2019-01-10T17:34:37.291Z,24.2
2019-01-10T17:37:43.178Z,24.1
2019-01-10T17:40:51.982Z,24
2019-01-10T17:43:58.048Z,24
2019-01-10T17:47:03.953Z,23.9
2019-01-10T17:50:09.966Z,23.8
2019-01-10T17:53:18.891Z,23.7
2019-01-10T17:56:24.947Z,23.7
2019-01-10T17:59:30.861Z,23.6
2019-01-10T18:02:36.767Z,23.6
2019-01-10T18:05:42.723Z,23.9
2019-01-10T18:08:48.688Z,23.8
2019-01-10T18:11:54.567Z,23.8
2019-01-10T18:15:00.606Z,24
2019-01-10T18:18:06.570Z,24.2
2019-01-10T18:21:15.702Z,24.2
2019-01-10T18:24:21.762Z,24.3
2019-01-10T18:27:27.638Z,24.4
2019-01-10T18:30:33.690Z,24.3
2019-01-10T18:33:45.617Z,24.4
2019-01-10T18:36:51.542Z,24.6
2019-01-10T18:39:57.508Z,24.5
2019-01-10T18:43:03.576Z,24.4
2019-01-10T18:46:12.646Z,24.5
2019-01-10T18:49:18.660Z,24.5
2019-01-10T18:52:24.536Z,24.4
2019-01-10T18:55:33.336Z,24.4
2019-01-10T18:58:39.296Z,24.5
2019-01-10T19:01:45.167Z,24.5
2019-01-10T19:04:51.112Z,24.5
2019-01-10T19:07:57.005Z,24.6
2019-01-10T19:11:04.361Z,24.7
2019-01-10T19:14:10.323Z,24.8
2019-01-10T19:17:16.209Z,24.9
2019-01-10T19:20:28.597Z,24.9
2019-01-10T19:23:34.503Z,25
2019-01-10T19:26:40.544Z,25.1
2019-01-10T19:29:46.476Z,25.2
2019-01-10T19:32:52.436Z,25.2
2019-01-10T19:35:58.312Z,25.3
2019-01-10T19:39:04.460Z,25.3
2019-01-10T19:42:13.387Z,25.4
2019-01-10T19:45:19.474Z,25.5
2019-01-10T19:48:25.422Z,25.6
2019-01-10T19:51:31.569Z,25.7
2019-01-10T19:54:37.538Z,25.7
2019-01-10T19:57:43.495Z,25.7
2019-01-10T20:00:49.433Z,25.8
2019-01-10T20:03:55.409Z,25.8
2019-01-10T20:07:01.376Z,25.8
2019-01-10T20:10:07.371Z,25.9
2019-01-10T20:13:13.290Z,26
2019-01-10T20:16:19.249Z,26.1
2019-01-10T20:19:25.305Z,26.1
2019-01-10T20:22:31.193Z,26.2
2019-01-10T20:25:37.235Z,26.3
2019-01-10T20:28:44.266Z,26.3
2019-01-10T20:31:50.148Z,26.2
2019-01-10T20:34:56.133Z,26.3
2019-01-10T20:38:02.088Z,26.4
2019-01-10T20:41:08.050Z,26.5
2019-01-10T20:44:14.007Z,26.5
2019-01-10T20:47:19.964Z,26.4
2019-01-10T20:50:25.855Z,26.4
2019-01-10T20:53:31.884Z,26.5
2019-01-10T20:56:37.844Z,26.4
2019-01-10T20:59:43.719Z,26.4
2019-01-10T21:02:49.776Z,26.4
2019-01-10T21:05:55.733Z,26.5
2019-01-10T21:09:01.615Z,26.6
2019-01-10T21:12:14.199Z,26.6
2019-01-10T21:15:20.069Z,26.6
2019-01-10T21:18:29.397Z,26.6
2019-01-10T21:21:35.364Z,26.6
2019-01-10T21:24:41.313Z,26.7
2019-01-10T21:27:47.192Z,26.7
2019-01-10T21:30:53.129Z,26.8
2019-01-10T21:33:59.092Z,26.9
2019-01-10T21:37:04.970Z,26.8
2019-01-10T21:40:11.950Z,26.8
2019-01-10T21:43:17.915Z,26.9
2019-01-10T21:46:23.849Z,26.9
2019-01-10T21:49:29.721Z,26.9
2019-01-10T21:52:35.679Z,27
2019-01-10T21:55:41.578Z,27
2019-01-10T21:58:47.593Z,27.1
2019-01-10T22:01:53.465Z,27.1
2019-01-10T22:04:59.404Z,27.1
2019-01-10T22:08:07.825Z,27.1
2019-01-10T22:11:13.881Z,27.2
2019-01-10T22:14:19.838Z,27.2
2019-01-10T22:17:25.723Z,27.3
2019-01-10T22:20:31.662Z,27.3
2019-01-10T22:23:37.727Z,27.3
2019-01-10T22:26:43.607Z,27.3
2019-01-10T22:29:49.541Z,27.3
2019-01-10T22:32:55.504Z,27.2
2019-01-10T22:36:01.452Z,27.3
2019-01-10T22:39:07.414Z,27.2
2019-01-10T22:42:13.323Z,27.3
2019-01-10T22:45:19.334Z,27.3
2019-01-10T22:48:26.777Z,27.4
2019-01-10T22:51:32.787Z,27.3
2019-01-10T22:54:38.749Z,27.4
2019-01-10T22:57:44.708Z,27.4
2019-01-10T23:00:50.579Z,27.4
2019-01-10T23:03:56.624Z,27.4
2019-01-10T23:07:02.498Z,27.5
2019-01-10T23:10:11.318Z,27.5
2019-01-10T23:13:17.371Z,27.5
2019-01-10T23:16:23.261Z,27.5
2019-01-10T23:19:29.307Z,27.4
2019-01-10T23:22:38.094Z,27.4
2019-01-10T23:25:44.082Z,27.4
2019-01-10T23:28:50.150Z,27.5
2019-01-10T23:31:56.015Z,27.5
2019-01-10T23:35:02.064Z,27.5
2019-01-10T23:38:07.933Z,27.6
2019-01-10T23:41:13.878Z,27.6
2019-01-10T23:44:19.838Z,27.5
2019-01-10T23:47:25.825Z,27.5
2019-01-10T23:50:32.062Z,27.4
2019-01-10T23:53:38.023Z,27.5
2019-01-10T23:56:44.084Z,27.5
2019-01-10T23:59:50.256Z,27.6
